sensor_id;sensor_type;location;lat;lon;timestamp;pressure;altitude;pressure_sealevel;temperature;humidity
56992;BME280;42885;49.754;18.636;2023-02-01T00:00:58;97843.82;;;4.47;100.00
56992;BME280;42885;49.754;18.636;2023-02-01T00:03:47;97823.94;;;4.27;100.00
56992;BME280;42885;49.754;18.636;2023-02-01T00:06:36;97845.38;;;4.31;100.00
56992;BME280;42885;49.754;18.636;2023-02-01T00:09:25;97840.28;;;4.29;100.00
56992;BME280;42885;49.754;18.636;2023-02-01T00:12:14;97850.50;;;4.22;100.00
56992;BME280;42885;49.754;18.636;2023-02-01T00:15:03;97852.70;;;4.31;100.00
56992;BME280;42885;49.754;18.636;2023-02-01T00:17:54;97846.37;;;4.38;100.00
56992;BME280;42885;49.754;18.636;2023-02-01T00:20:47;97854.20;;;4.37;100.00
56992;BME280;42885;49.754;18.636;2023-02-01T00:23:36;97849.01;;;4.47;100.00
56992;BME280;42885;49.754;18.636;2023-02-01T00:26:35;97836.33;;;4.41;100.00
56992;BME280;42885;49.754;18.636;2023-02-01T00:29:25;97842.01;;;4.39;100.00
56992;BME280;42885;49.754;18.636;2023-02-01T00:32:14;97834.33;;;4.37;100.00
56992;BME280;42885;49.754;18.636;2023-02-01T00:35:04;97835.86;;;4.41;100.00
56992;BME280;42885;49.754;18.636;2023-02-01T00:37:53;97830.09;;;4.45;100.00
56992;BME280;42885;49.754;18.636;2023-02-01T00:40:42;97833.55;;;4.46;100.00
56992;BME280;42885;49.754;18.636;2023-02-01T00:43:32;97842.38;;;4.71;100.00
56992;BME280;42885;49.754;18.636;2023-02-01T00:46:22;97840.32;;;4.69;100.00
56992;BME280;42885;49.754;18.636;2023-02-01T00:49:11;97834.41;;;4.76;100.00
56992;BME280;42885;49.754;18.636;2023-02-01T00:52:00;97827.36;;;4.69;100.00
56992;BME280;42885;49.754;18.636;2023-02-01T00:54:50;97827.01;;;4.77;100.00
56992;BME280;42885;49.754;18.636;2023-02-01T00:57:39;97825.59;;;4.80;100.00
56992;BME280;42885;49.754;18.636;2023-02-01T01:00:28;97830.13;;;4.75;100.00
56992;BME280;42885;49.754;18.636;2023-02-01T01:03:17;97829.31;;;4.93;100.00
56992;BME280;42885;49.754;18.636;2023-02-01T01:06:09;97832.26;;;4.86;100.00
56992;BME280;42885;49.754;18.636;2023-02-01T01:09:00;97845.56;;;4.67;100.00
56992;BME280;42885;49.754;18.636;2023-02-01T01:11:50;97824.95;;;4.75;100.00
56992;BME280;42885;49.754;18.636;2023-02-01T01:14:40;97831.39;;;4.66;100.00
56992;BME280;42885;49.754;18.636;2023-02-01T01:17:30;97828.79;;;4.55;100.00
56992;BME280;42885;49.754;18.636;2023-02-01T01:20:20;97837.34;;;4.47;100.00
56992;BME280;42885;49.754;18.636;2023-02-01T01:23:09;97834.45;;;4.55;100.00
56992;BME280;42885;49.754;18.636;2023-02-01T01:25:58;97828.33;;;4.66;100.00
56992;BME280;42885;49.754;18.636;2023-02-01T01:28:48;97818.61;;;4.72;100.00
56992;BME280;42885;49.754;18.636;2023-02-01T01:31:37;97831.15;;;4.41;100.00
56992;BME280;42885;49.754;18.636;2023-02-01T01:34:25;97825.24;;;4.48;100.00
56992;BME280;42885;49.754;18.636;2023-02-01T01:37:15;97825.20;;;4.68;100.00
56992;BME280;42885;49.754;18.636;2023-02-01T01:40:05;97826.28;;;4.54;100.00
56992;BME280;42885;49.754;18.636;2023-02-01T01:42:54;97828.59;;;4.60;100.00
56992;BME280;42885;49.754;18.636;2023-02-01T01:45:43;97832.88;;;4.72;100.00
56992;BME280;42885;49.754;18.636;2023-02-01T01:48:32;97817.72;;;4.62;100.00
56992;BME280;42885;49.754;18.636;2023-02-01T01:51:23;97831.00;;;4.54;100.00
56992;BME280;42885;49.754;18.636;2023-02-01T01:54:21;97833.66;;;4.43;100.00
56992;BME280;42885;49.754;18.636;2023-02-01T01:57:29;97822.33;;;4.45;100.00
56992;BME280;42885;49.754;18.636;2023-02-01T02:00:14;97815.78;;;4.26;100.00
56992;BME280;42885;49.754;18.636;2023-02-01T02:03:19;97829.01;;;4.20;100.00
56992;BME280;42885;49.754;18.636;2023-02-01T02:06:03;97817.22;;;4.23;100.00
56992;BME280;42885;49.754;18.636;2023-02-01T02:08:55;97810.22;;;4.15;100.00
56992;BME280;42885;49.754;18.636;2023-02-01T02:11:44;97809.50;;;4.11;100.00
56992;BME280;42885;49.754;18.636;2023-02-01T02:14:34;97815.69;;;3.96;100.00
56992;BME280;42885;49.754;18.636;2023-02-01T02:20:45;97802.30;;;3.87;100.00
56992;BME280;42885;49.754;18.636;2023-02-01T02:26:54;97806.83;;;3.92;100.00
56992;BME280;42885;49.754;18.636;2023-02-01T02:42:22;97825.62;;;4.07;100.00
56992;BME280;42885;49.754;18.636;2023-02-01T02:45:33;97818.84;;;4.15;100.00
56992;BME280;42885;49.754;18.636;2023-02-01T02:52:17;97852.53;;;4.57;100.00
56992;BME280;42885;49.754;18.636;2023-02-01T02:54:59;97844.93;;;4.41;100.00
56992;BME280;42885;49.754;18.636;2023-02-01T02:57:51;97880.75;;;4.63;100.00
56992;BME280;42885;49.754;18.636;2023-02-01T03:00:57;97908.83;;;4.63;100.00
56992;BME280;42885;49.754;18.636;2023-02-01T03:04:05;97906.73;;;4.30;100.00
56992;BME280;42885;49.754;18.636;2023-02-01T03:06:57;97912.11;;;4.36;100.00
56992;BME280;42885;49.754;18.636;2023-02-01T03:09:47;97899.17;;;4.03;100.00
56992;BME280;42885;49.754;18.636;2023-02-01T03:12:38;97891.25;;;3.96;100.00
56992;BME280;42885;49.754;18.636;2023-02-01T03:19:09;97880.01;;;4.18;100.00
56992;BME280;42885;49.754;18.636;2023-02-01T03:22:04;97879.47;;;4.32;100.00
56992;BME280;42885;49.754;18.636;2023-02-01T03:25:15;97875.41;;;4.14;100.00
56992;BME280;42885;49.754;18.636;2023-02-01T03:28:00;97871.03;;;4.16;100.00
56992;BME280;42885;49.754;18.636;2023-02-01T03:30:48;97878.00;;;4.14;100.00
56992;BME280;42885;49.754;18.636;2023-02-01T03:33:38;97874.59;;;4.34;100.00
56992;BME280;42885;49.754;18.636;2023-02-01T03:36:48;97876.50;;;4.08;100.00
56992;BME280;42885;49.754;18.636;2023-02-01T03:39:59;97874.78;;;4.19;100.00
56992;BME280;42885;49.754;18.636;2023-02-01T03:42:45;97879.77;;;4.24;100.00
56992;BME280;42885;49.754;18.636;2023-02-01T03:45:38;97874.97;;;4.25;100.00
56992;BME280;42885;49.754;18.636;2023-02-01T03:48:29;97874.06;;;4.26;100.00
56992;BME280;42885;49.754;18.636;2023-02-01T03:51:21;97873.16;;;4.27;100.00
56992;BME280;42885;49.754;18.636;2023-02-01T03:54:14;97882.60;;;4.18;100.00
56992;BME280;42885;49.754;18.636;2023-02-01T03:57:06;97881.78;;;4.27;100.00
56992;BME280;42885;49.754;18.636;2023-02-01T04:00:08;97885.95;;;4.32;100.00
56992;BME280;42885;49.754;18.636;2023-02-01T04:03:06;97875.69;;;4.29;100.00
56992;BME280;42885;49.754;18.636;2023-02-01T04:05:56;97889.26;;;4.46;100.00
56992;BME280;42885;49.754;18.636;2023-02-01T04:08:46;97887.83;;;4.38;100.00
56992;BME280;42885;49.754;18.636;2023-02-01T04:11:35;97889.64;;;4.36;100.00
56992;BME280;42885;49.754;18.636;2023-02-01T04:14:25;97882.59;;;4.40;100.00
56992;BME280;42885;49.754;18.636;2023-02-01T04:17:13;97889.97;;;4.49;100.00
56992;BME280;42885;49.754;18.636;2023-02-01T04:20:03;97895.27;;;4.46;100.00
56992;BME280;42885;49.754;18.636;2023-02-01T04:22:53;97887.95;;;4.66;100.00
56992;BME280;42885;49.754;18.636;2023-02-01T04:25:42;97881.98;;;4.33;100.00
56992;BME280;42885;49.754;18.636;2023-02-01T04:28:31;97893.96;;;4.25;100.00
56992;BME280;42885;49.754;18.636;2023-02-01T04:31:21;97897.52;;;4.33;100.00
56992;BME280;42885;49.754;18.636;2023-02-01T04:34:11;97901.97;;;4.19;100.00
56992;BME280;42885;49.754;18.636;2023-02-01T04:37:00;97899.20;;;4.34;100.00
56992;BME280;42885;49.754;18.636;2023-02-01T04:39:50;97912.63;;;4.34;100.00
56992;BME280;42885;49.754;18.636;2023-02-01T04:42:39;97910.42;;;4.35;100.00
56992;BME280;42885;49.754;18.636;2023-02-01T04:45:28;97914.98;;;4.40;100.00
56992;BME280;42885;49.754;18.636;2023-02-01T04:48:18;97920.55;;;4.41;100.00
56992;BME280;42885;49.754;18.636;2023-02-01T04:51:07;97915.41;;;4.29;100.00
56992;BME280;42885;49.754;18.636;2023-02-01T04:53:58;97915.55;;;4.14;100.00
56992;BME280;42885;49.754;18.636;2023-02-01T04:56:47;97924.70;;;4.12;100.00
56992;BME280;42885;49.754;18.636;2023-02-01T04:59:36;97921.98;;;4.26;100.00
56992;BME280;42885;49.754;18.636;2023-02-01T05:02:25;97913.58;;;4.21;100.00
56992;BME280;42885;49.754;18.636;2023-02-01T05:05:14;97912.15;;;4.24;100.00
56992;BME280;42885;49.754;18.636;2023-02-01T05:08:03;97916.37;;;4.26;100.00
56992;BME280;42885;49.754;18.636;2023-02-01T05:10:53;97920.68;;;4.16;100.00
56992;BME280;42885;49.754;18.636;2023-02-01T05:13:42;97911.02;;;4.09;100.00
56992;BME280;42885;49.754;18.636;2023-02-01T05:16:37;97908.31;;;4.22;100.00
56992;BME280;42885;49.754;18.636;2023-02-01T05:19:26;97900.83;;;4.26;100.00
56992;BME280;42885;49.754;18.636;2023-02-01T05:22:15;97903.88;;;4.04;100.00
56992;BME280;42885;49.754;18.636;2023-02-01T05:25:05;97905.77;;;4.10;100.00
56992;BME280;42885;49.754;18.636;2023-02-01T05:27:54;97898.52;;;4.08;100.00
56992;BME280;42885;49.754;18.636;2023-02-01T05:30:42;97899.95;;;4.05;100.00
56992;BME280;42885;49.754;18.636;2023-02-01T05:33:32;97894.77;;;4.05;100.00
56992;BME280;42885;49.754;18.636;2023-02-01T05:36:20;97892.14;;;4.17;100.00
56992;BME280;42885;49.754;18.636;2023-02-01T05:39:10;97895.83;;;4.22;100.00
56992;BME280;42885;49.754;18.636;2023-02-01T05:42:00;97895.64;;;4.16;100.00
56992;BME280;42885;49.754;18.636;2023-02-01T05:44:49;97891.56;;;4.21;100.00
56992;BME280;42885;49.754;18.636;2023-02-01T05:47:39;97890.13;;;4.24;100.00
56992;BME280;42885;49.754;18.636;2023-02-01T05:50:28;97891.29;;;4.27;100.00
56992;BME280;42885;49.754;18.636;2023-02-01T05:53:17;97888.92;;;4.33;100.00
56992;BME280;42885;49.754;18.636;2023-02-01T05:56:07;97888.84;;;4.34;100.00
56992;BME280;42885;49.754;18.636;2023-02-01T05:58:56;97884.13;;;4.44;100.00
56992;BME280;42885;49.754;18.636;2023-02-01T06:01:46;97880.34;;;4.31;100.00
56992;BME280;42885;49.754;18.636;2023-02-01T06:04:35;97884.84;;;4.48;100.00
56992;BME280;42885;49.754;18.636;2023-02-01T06:07:24;97883.11;;;4.48;100.00
56992;BME280;42885;49.754;18.636;2023-02-01T06:10:14;97878.17;;;4.42;100.00
56992;BME280;42885;49.754;18.636;2023-02-01T06:13:03;97887.44;;;4.37;100.00
56992;BME280;42885;49.754;18.636;2023-02-01T06:15:52;97890.08;;;4.46;100.00
56992;BME280;42885;49.754;18.636;2023-02-01T06:18:42;97888.87;;;4.55;100.00
56992;BME280;42885;49.754;18.636;2023-02-01T06:21:31;97874.14;;;4.55;100.00
56992;BME280;42885;49.754;18.636;2023-02-01T06:24:21;97875.20;;;4.51;100.00
56992;BME280;42885;49.754;18.636;2023-02-01T06:27:10;97876.94;;;4.40;100.00
56992;BME280;42885;49.754;18.636;2023-02-01T06:30:00;97886.39;;;4.41;100.00
56992;BME280;42885;49.754;18.636;2023-02-01T06:32:51;97883.16;;;4.47;100.00
56992;BME280;42885;49.754;18.636;2023-02-01T06:35:42;97884.56;;;4.44;100.00
56992;BME280;42885;49.754;18.636;2023-02-01T06:38:36;97884.70;;;4.40;100.00
56992;BME280;42885;49.754;18.636;2023-02-01T06:41:28;97883.41;;;4.40;100.00
56992;BME280;42885;49.754;18.636;2023-02-01T06:44:17;97885.34;;;4.35;100.00
56992;BME280;42885;49.754;18.636;2023-02-01T06:47:06;97884.95;;;4.24;100.00
56992;BME280;42885;49.754;18.636;2023-02-01T06:49:54;97880.10;;;4.26;100.00
56992;BME280;42885;49.754;18.636;2023-02-01T06:52:43;97875.69;;;4.29;100.00
56992;BME280;42885;49.754;18.636;2023-02-01T06:55:31;97881.98;;;4.33;100.00
56992;BME280;42885;49.754;18.636;2023-02-01T06:58:21;97880.69;;;4.33;100.00
56992;BME280;42885;49.754;18.636;2023-02-01T07:01:11;97872.47;;;4.23;100.00
56992;BME280;42885;49.754;18.636;2023-02-01T07:04:01;97871.75;;;4.51;100.00
56992;BME280;42885;49.754;18.636;2023-02-01T07:06:50;97865.80;;;4.38;100.00
56992;BME280;42885;49.754;18.636;2023-02-01T07:09:39;97864.12;;;4.37;100.00
56992;BME280;42885;49.754;18.636;2023-02-01T07:12:29;97870.12;;;4.38;100.00
56992;BME280;42885;49.754;18.636;2023-02-01T07:15:18;97867.78;;;4.21;100.00
56992;BME280;42885;49.754;18.636;2023-02-01T07:18:07;97857.27;;;4.14;100.00
56992;BME280;42885;49.754;18.636;2023-02-01T07:20:56;97862.73;;;4.29;100.00
56992;BME280;42885;49.754;18.636;2023-02-01T07:23:46;97865.22;;;4.32;100.00
56992;BME280;42885;49.754;18.636;2023-02-01T07:26:35;97868.53;;;4.46;100.00
56992;BME280;42885;49.754;18.636;2023-02-01T07:29:25;97873.81;;;4.43;100.00
56992;BME280;42885;49.754;18.636;2023-02-01T07:32:14;97872.14;;;4.41;100.00
56992;BME280;42885;49.754;18.636;2023-02-01T07:35:06;97872.03;;;4.45;100.00
56992;BME280;42885;49.754;18.636;2023-02-01T07:37:56;97869.69;;;4.38;100.00
56992;BME280;42885;49.754;18.636;2023-02-01T07:40:46;97872.80;;;4.57;100.00
56992;BME280;42885;49.754;18.636;2023-02-01T07:43:36;97867.94;;;4.60;100.00
56992;BME280;42885;49.754;18.636;2023-02-01T07:46:26;97864.30;;;4.74;100.00
56992;BME280;42885;49.754;18.636;2023-02-01T07:49:15;97865.80;;;4.70;100.00
56992;BME280;42885;49.754;18.636;2023-02-01T07:52:04;97868.96;;;4.76;100.00
56992;BME280;42885;49.754;18.636;2023-02-01T07:54:53;97851.00;;;4.82;100.00
56992;BME280;42885;49.754;18.636;2023-02-01T07:57:42;97863.35;;;5.06;100.00
56992;BME280;42885;49.754;18.636;2023-02-01T08:00:31;97859.61;;;4.93;100.00
56992;BME280;42885;49.754;18.636;2023-02-01T08:03:38;97865.20;;;5.13;100.00
56992;BME280;42885;49.754;18.636;2023-02-01T08:06:30;97860.81;;;5.05;100.00
56992;BME280;42885;49.754;18.636;2023-02-01T08:09:19;97870.16;;;4.99;100.00
56992;BME280;42885;49.754;18.636;2023-02-01T08:12:09;97873.02;;;4.92;100.00
56992;BME280;42885;49.754;18.636;2023-02-01T08:14:58;97872.28;;;5.09;100.00
56992;BME280;42885;49.754;18.636;2023-02-01T08:17:49;97877.47;;;5.09;100.00
56992;BME280;42885;49.754;18.636;2023-02-01T08:20:39;97877.00;;;5.20;100.00
56992;BME280;42885;49.754;18.636;2023-02-01T08:23:29;97868.58;;;5.34;100.00
56992;BME280;42885;49.754;18.636;2023-02-01T08:26:24;97871.30;;;5.50;100.00
56992;BME280;42885;49.754;18.636;2023-02-01T08:29:13;97866.05;;;5.33;100.00
56992;BME280;42885;49.754;18.636;2023-02-01T08:32:02;97858.86;;;5.29;100.00
56992;BME280;42885;49.754;18.636;2023-02-01T08:34:51;97858.03;;;5.29;100.00
56992;BME280;42885;49.754;18.636;2023-02-01T08:37:40;97858.36;;;5.21;100.00
56992;BME280;42885;49.754;18.636;2023-02-01T08:40:30;97860.95;;;5.31;100.00
56992;BME280;42885;49.754;18.636;2023-02-01T08:43:19;97856.48;;;5.44;100.00
56992;BME280;42885;49.754;18.636;2023-02-01T08:46:10;97849.11;;;5.54;100.00
56992;BME280;42885;49.754;18.636;2023-02-01T08:48:59;97851.45;;;5.49;100.00
56992;BME280;42885;49.754;18.636;2023-02-01T08:51:49;97845.97;;;5.28;100.00
56992;BME280;42885;49.754;18.636;2023-02-01T08:54:37;97842.67;;;5.24;100.00
56992;BME280;42885;49.754;18.636;2023-02-01T08:57:27;97857.92;;;5.21;100.00
56992;BME280;42885;49.754;18.636;2023-02-01T09:00:18;97855.23;;;5.42;100.00
56992;BME280;42885;49.754;18.636;2023-02-01T09:03:09;97852.52;;;5.26;100.00
56992;BME280;42885;49.754;18.636;2023-02-01T09:06:08;97845.82;;;5.31;100.00
56992;BME280;42885;49.754;18.636;2023-02-01T09:08:57;97850.05;;;5.42;100.00
56992;BME280;42885;49.754;18.636;2023-02-01T09:11:47;97847.50;;;5.32;100.00
56992;BME280;42885;49.754;18.636;2023-02-01T09:14:38;97848.25;;;5.44;100.00
56992;BME280;42885;49.754;18.636;2023-02-01T09:17:28;97843.45;;;5.35;100.00
56992;BME280;42885;49.754;18.636;2023-02-01T09:20:17;97835.97;;;5.48;100.00
56992;BME280;42885;49.754;18.636;2023-02-01T09:23:08;97837.61;;;5.40;100.00
56992;BME280;42885;49.754;18.636;2023-02-01T09:26:01;97838.67;;;5.64;100.00
56992;BME280;42885;49.754;18.636;2023-02-01T09:28:50;97838.77;;;5.71;100.00
56992;BME280;42885;49.754;18.636;2023-02-01T09:31:40;97843.06;;;5.53;100.00
56992;BME280;42885;49.754;18.636;2023-02-01T09:34:30;97832.52;;;5.47;100.00
56992;BME280;42885;49.754;18.636;2023-02-01T09:37:20;97830.30;;;5.40;100.00
56992;BME280;42885;49.754;18.636;2023-02-01T09:40:17;97832.75;;;5.51;100.00
56992;BME280;42885;49.754;18.636;2023-02-01T09:43:10;97823.92;;;5.56;100.00
56992;BME280;42885;49.754;18.636;2023-02-01T09:49:05;97830.41;;;5.56;100.00
56992;BME280;42885;49.754;18.636;2023-02-01T09:51:51;97819.61;;;5.46;100.00
56992;BME280;42885;49.754;18.636;2023-02-01T09:54:49;97818.03;;;5.52;100.00
56992;BME280;42885;49.754;18.636;2023-02-01T09:57:51;97813.97;;;5.92;100.00
56992;BME280;42885;49.754;18.636;2023-02-01T10:00:40;97818.41;;;5.90;100.00
56992;BME280;42885;49.754;18.636;2023-02-01T10:03:34;97808.77;;;5.92;100.00
56992;BME280;42885;49.754;18.636;2023-02-01T10:13:03;97799.70;;;6.01;100.00
56992;BME280;42885;49.754;18.636;2023-02-01T10:16:04;97804.59;;;5.89;100.00
56992;BME280;42885;49.754;18.636;2023-02-01T10:21:58;97796.69;;;6.19;100.00
56992;BME280;42885;49.754;18.636;2023-02-01T10:25:08;97792.91;;;6.33;100.00
56992;BME280;42885;49.754;18.636;2023-02-01T10:27:46;97794.39;;;6.13;100.00
56992;BME280;42885;49.754;18.636;2023-02-01T10:30:39;97789.17;;;6.30;100.00
56992;BME280;42885;49.754;18.636;2023-02-01T10:39:25;97764.34;;;6.25;100.00
56992;BME280;42885;49.754;18.636;2023-02-01T10:42:14;97778.33;;;6.22;100.00
56992;BME280;42885;49.754;18.636;2023-02-01T10:45:04;97772.49;;;6.34;100.00
56992;BME280;42885;49.754;18.636;2023-02-01T10:47:56;97771.53;;;6.28;100.00
56992;BME280;42885;49.754;18.636;2023-02-01T10:51:00;97770.58;;;6.47;100.00
56992;BME280;42885;49.754;18.636;2023-02-01T10:53:54;97763.70;;;6.37;100.00
56992;BME280;42885;49.754;18.636;2023-02-01T10:56:44;97763.73;;;6.62;100.00
56992;BME280;42885;49.754;18.636;2023-02-01T10:59:37;97756.28;;;6.47;100.00
56992;BME280;42885;49.754;18.636;2023-02-01T11:02:31;97751.77;;;6.42;100.00
56992;BME280;42885;49.754;18.636;2023-02-01T11:05:21;97761.44;;;6.31;100.00
56992;BME280;42885;49.754;18.636;2023-02-01T11:08:14;97763.50;;;6.24;100.00
56992;BME280;42885;49.754;18.636;2023-02-01T11:11:03;97750.41;;;6.34;100.00
56992;BME280;42885;49.754;18.636;2023-02-01T11:13:56;97752.66;;;6.25;100.00
56992;BME280;42885;49.754;18.636;2023-02-01T11:16:54;97747.80;;;6.43;100.00
56992;BME280;42885;49.754;18.636;2023-02-01T11:20:02;97748.52;;;6.20;100.00
56992;BME280;42885;49.754;18.636;2023-02-01T11:22:55;97743.02;;;6.18;100.00
56992;BME280;42885;49.754;18.636;2023-02-01T11:25:54;97735.61;;;5.92;100.00
56992;BME280;42885;49.754;18.636;2023-02-01T11:28:49;97745.84;;;5.87;100.00
56992;BME280;42885;49.754;18.636;2023-02-01T11:31:35;97736.89;;;5.84;100.00
56992;BME280;42885;49.754;18.636;2023-02-01T11:34:27;97726.67;;;5.81;100.00
56992;BME280;42885;49.754;18.636;2023-02-01T11:37:21;97731.32;;;5.83;100.00
56992;BME280;42885;49.754;18.636;2023-02-01T11:43:28;97727.27;;;5.95;100.00
56992;BME280;42885;49.754;18.636;2023-02-01T11:46:19;97732.13;;;6.02;100.00
56992;BME280;42885;49.754;18.636;2023-02-01T11:49:22;97719.28;;;6.08;100.00
56992;BME280;42885;49.754;18.636;2023-02-01T11:55:36;97718.56;;;6.31;100.00
56992;BME280;42885;49.754;18.636;2023-02-01T12:01:40;97720.64;;;6.49;100.00
56992;BME280;42885;49.754;18.636;2023-02-01T12:07:55;97711.09;;;6.50;100.00
56992;BME280;42885;49.754;18.636;2023-02-01T12:13:51;97681.88;;;6.69;100.00
56992;BME280;42885;49.754;18.636;2023-02-01T12:29:15;97692.82;;;6.17;100.00
56992;BME280;42885;49.754;18.636;2023-02-01T12:32:08;97697.54;;;6.00;100.00
56992;BME280;42885;49.754;18.636;2023-02-01T12:38:48;97691.30;;;5.78;100.00
56992;BME280;42885;49.754;18.636;2023-02-01T12:50:28;97670.08;;;5.52;100.00
56992;BME280;42885;49.754;18.636;2023-02-01T12:56:18;97668.63;;;5.64;100.00
56992;BME280;42885;49.754;18.636;2023-02-01T12:59:16;97666.05;;;5.73;100.00
56992;BME280;42885;49.754;18.636;2023-02-01T13:05:11;97670.84;;;5.81;100.00
56992;BME280;42885;49.754;18.636;2023-02-01T13:08:09;97664.65;;;5.74;100.00
56992;BME280;42885;49.754;18.636;2023-02-01T13:11:02;97665.95;;;5.57;100.00
56992;BME280;42885;49.754;18.636;2023-02-01T13:13:54;97664.12;;;5.41;100.00
56992;BME280;42885;49.754;18.636;2023-02-01T13:16:46;97662.38;;;5.42;100.00
56992;BME280;42885;49.754;18.636;2023-02-01T13:22:45;97655.27;;;5.36;100.00
56992;BME280;42885;49.754;18.636;2023-02-01T13:25:34;97648.09;;;5.59;100.00
56992;BME280;42885;49.754;18.636;2023-02-01T13:28:40;97652.20;;;5.46;100.00
56992;BME280;42885;49.754;18.636;2023-02-01T13:35:20;97649.25;;;5.54;100.00
56992;BME280;42885;49.754;18.636;2023-02-01T13:41:24;97633.36;;;5.51;100.00
56992;BME280;42885;49.754;18.636;2023-02-01T13:44:21;97636.64;;;5.46;100.00
56992;BME280;42885;49.754;18.636;2023-02-01T13:47:22;97631.91;;;5.36;100.00
56992;BME280;42885;49.754;18.636;2023-02-01T13:50:26;97636.26;;;5.45;100.00
56992;BME280;42885;49.754;18.636;2023-02-01T13:53:21;97631.67;;;5.59;100.00
56992;BME280;42885;49.754;18.636;2023-02-01T13:56:15;97631.91;;;5.54;100.00
56992;BME280;42885;49.754;18.636;2023-02-01T14:03:01;97634.35;;;5.48;100.00
56992;BME280;42885;49.754;18.636;2023-02-01T14:04:53;97648.09;;;5.59;100.00
56992;BME280;42885;49.754;18.636;2023-02-01T14:11:01;97627.25;;;5.17;100.00
56992;BME280;42885;49.754;18.636;2023-02-01T14:13:51;97624.81;;;5.22;100.00
56992;BME280;42885;49.754;18.636;2023-02-01T14:17:29;97626.57;;;5.31;100.00
56992;BME280;42885;49.754;18.636;2023-02-01T14:19:32;97626.77;;;5.17;100.00
56992;BME280;42885;49.754;18.636;2023-02-01T14:22:37;97635.23;;;4.94;100.00
56992;BME280;42885;49.754;18.636;2023-02-01T14:25:22;97639.95;;;4.86;100.00
56992;BME280;42885;49.754;18.636;2023-02-01T14:28:23;97638.98;;;4.70;100.00
56992;BME280;42885;49.754;18.636;2023-02-01T14:31:15;97640.13;;;4.73;100.00
56992;BME280;42885;49.754;18.636;2023-02-01T14:34:14;97645.09;;;4.77;100.00
56992;BME280;42885;49.754;18.636;2023-02-01T14:37:07;97644.97;;;4.89;100.00
56992;BME280;42885;49.754;18.636;2023-02-01T14:40:05;97648.66;;;4.75;100.00
56992;BME280;42885;49.754;18.636;2023-02-01T14:42:55;97643.52;;;4.84;100.00
56992;BME280;42885;49.754;18.636;2023-02-01T14:45:49;97651.95;;;4.70;100.00
56992;BME280;42885;49.754;18.636;2023-02-01T14:48:42;97648.45;;;4.79;100.00
56992;BME280;42885;49.754;18.636;2023-02-01T14:51:31;97646.87;;;4.86;100.00
56992;BME280;42885;49.754;18.636;2023-02-01T14:54:22;97650.44;;;4.83;100.00
56992;BME280;42885;49.754;18.636;2023-02-01T14:57:19;97651.87;;;4.99;100.00
56992;BME280;42885;49.754;18.636;2023-02-01T15:00:21;97657.12;;;4.98;100.00
56992;BME280;42885;49.754;18.636;2023-02-01T15:09:16;97660.56;;;4.98;100.00
56992;BME280;42885;49.754;18.636;2023-02-01T15:12:17;97657.66;;;5.04;100.00
56992;BME280;42885;49.754;18.636;2023-02-01T15:15:22;97667.59;;;5.05;100.00
56992;BME280;42885;49.754;18.636;2023-02-01T15:18:16;97673.31;;;5.12;100.00
56992;BME280;42885;49.754;18.636;2023-02-01T15:21:04;97669.67;;;5.16;100.00
56992;BME280;42885;49.754;18.636;2023-02-01T15:24:43;97677.93;;;5.24;100.00
56992;BME280;42885;49.754;18.636;2023-02-01T15:26:46;97673.47;;;5.17;100.00
56992;BME280;42885;49.754;18.636;2023-02-01T15:29:36;97669.00;;;5.30;100.00
56992;BME280;42885;49.754;18.636;2023-02-01T15:32:29;97673.12;;;5.25;100.00
56992;BME280;42885;49.754;18.636;2023-02-01T15:38:32;97678.98;;;5.11;100.00
56992;BME280;42885;49.754;18.636;2023-02-01T15:41:22;97677.14;;;5.13;100.00
56992;BME280;42885;49.754;18.636;2023-02-01T15:47:18;97688.44;;;5.12;100.00
56992;BME280;42885;49.754;18.636;2023-02-01T15:52:59;97708.68;;;5.32;100.00
56992;BME280;42885;49.754;18.636;2023-02-01T15:55:54;97696.75;;;5.19;100.00
56992;BME280;42885;49.754;18.636;2023-02-01T15:58:45;97696.31;;;5.19;100.00
56992;BME280;42885;49.754;18.636;2023-02-01T16:01:37;97709.55;;;5.50;100.00
56992;BME280;42885;49.754;18.636;2023-02-01T16:04:28;97715.11;;;5.33;100.00
56992;BME280;42885;49.754;18.636;2023-02-01T16:07:26;97712.09;;;5.23;100.00
56992;BME280;42885;49.754;18.636;2023-02-01T16:10:26;97724.03;;;5.28;100.00
56992;BME280;42885;49.754;18.636;2023-02-01T16:13:10;97721.18;;;5.23;100.00
56992;BME280;42885;49.754;18.636;2023-02-01T16:15:59;97722.16;;;5.12;100.00
56992;BME280;42885;49.754;18.636;2023-02-01T16:18:49;97718.58;;;5.23;100.00
56992;BME280;42885;49.754;18.636;2023-02-01T16:21:38;97730.20;;;5.25;100.00
56992;BME280;42885;49.754;18.636;2023-02-01T16:24:28;97737.82;;;5.28;100.00
56992;BME280;42885;49.754;18.636;2023-02-01T16:27:17;97729.94;;;5.21;100.00
56992;BME280;42885;49.754;18.636;2023-02-01T16:30:07;97735.10;;;5.31;100.00
56992;BME280;42885;49.754;18.636;2023-02-01T16:32:59;97737.16;;;5.33;100.00
56992;BME280;42885;49.754;18.636;2023-02-01T16:35:55;97731.81;;;5.36;100.00
56992;BME280;42885;49.754;18.636;2023-02-01T16:38:46;97725.83;;;5.26;100.00
56992;BME280;42885;49.754;18.636;2023-02-01T16:41:37;97730.30;;;5.32;100.00
56992;BME280;42885;49.754;18.636;2023-02-01T16:44:28;97715.55;;;5.33;100.00
56992;BME280;42885;49.754;18.636;2023-02-01T16:47:20;97729.50;;;5.30;100.00
56992;BME280;42885;49.754;18.636;2023-02-01T16:50:15;97719.69;;;5.37;100.00
56992;BME280;42885;49.754;18.636;2023-02-01T16:53:04;97727.45;;;5.28;100.00
56992;BME280;42885;49.754;18.636;2023-02-01T16:55:54;97719.31;;;5.36;100.00
56992;BME280;42885;49.754;18.636;2023-02-01T16:58:45;97728.70;;;5.47;100.00
56992;BME280;42885;49.754;18.636;2023-02-01T17:01:35;97725.09;;;5.41;100.00